createdAt,value
2018-09-25T00:02:23.087Z,8.67
2018-09-25T00:04:56.334Z,8.74
2018-09-25T00:07:29.521Z,8.71
2018-09-25T00:10:02.757Z,8.66
2018-09-25T00:12:37.272Z,8.65
2018-09-25T00:15:10.793Z,8.65
2018-09-25T00:17:46.287Z,8.69
2018-09-25T00:20:19.768Z,8.65
2018-09-25T00:22:52.944Z,8.67
2018-09-25T00:25:27.801Z,8.50
2018-09-25T00:28:01.102Z,8.42
2018-09-25T00:30:34.313Z,8.44
2018-09-25T00:33:07.648Z,8.44
2018-09-25T00:35:40.912Z,8.40
2018-09-25T00:38:14.304Z,8.32
2018-09-25T00:40:47.486Z,8.28
2018-09-25T00:43:20.792Z,8.25
2018-09-25T00:45:53.925Z,8.27
2018-09-25T00:48:27.159Z,8.31
2018-09-25T00:51:00.379Z,8.27
2018-09-25T00:53:33.553Z,8.22
2018-09-25T00:56:06.759Z,8.17
2018-09-25T00:58:40.104Z,8.18
2018-09-25T01:01:13.312Z,8.16
2018-09-25T01:03:46.498Z,8.13
2018-09-25T01:06:19.744Z,8.15
2018-09-25T01:08:53.068Z,8.16
2018-09-25T01:11:26.401Z,8.16
2018-09-25T01:13:59.625Z,8.10
2018-09-25T01:16:32.918Z,8.09
2018-09-25T01:19:06.210Z,8.08
2018-09-25T01:21:39.413Z,8.09
2018-09-25T01:24:12.657Z,8.11
2018-09-25T01:26:45.824Z,8.19
2018-09-25T01:29:19.009Z,8.18
2018-09-25T01:31:52.152Z,8.10
2018-09-25T01:34:25.337Z,8.15
2018-09-25T01:36:58.605Z,8.13
2018-09-25T01:39:31.979Z,8.11
2018-09-25T01:42:05.179Z,8.14
2018-09-25T01:44:38.468Z,8.05
2018-09-25T01:47:11.909Z,8.04
2018-09-25T01:49:45.153Z,7.92
2018-09-25T01:52:18.953Z,7.85
2018-09-25T01:54:52.121Z,7.83
2018-09-25T01:57:26.398Z,7.70
2018-09-25T01:59:59.642Z,7.75
2018-09-25T02:02:32.829Z,7.80
2018-09-25T02:05:06.114Z,7.87
2018-09-25T02:07:39.257Z,7.81
2018-09-25T02:10:12.446Z,7.63
2018-09-25T02:12:45.676Z,7.66
2018-09-25T02:15:18.918Z,7.67
2018-09-25T02:17:52.062Z,7.77
2018-09-25T02:20:25.382Z,7.85
2018-09-25T02:22:58.639Z,7.88
2018-09-25T02:25:31.902Z,7.94
2018-09-25T02:28:05.072Z,7.99
2018-09-25T02:30:38.339Z,8.01
2018-09-25T02:33:11.796Z,7.95
2018-09-25T02:35:45.002Z,7.85
2018-09-25T02:38:18.319Z,7.74
2018-09-25T02:40:51.546Z,7.56
2018-09-25T02:43:24.888Z,7.46
2018-09-25T02:45:58.065Z,7.39
2018-09-25T02:48:31.282Z,7.36
2018-09-25T02:51:04.517Z,7.36
2018-09-25T02:53:37.949Z,7.31
2018-09-25T02:56:11.528Z,7.54
2018-09-25T02:58:44.784Z,7.63
2018-09-25T03:01:18.009Z,7.66
2018-09-25T03:03:51.150Z,7.68
2018-09-25T03:06:24.457Z,7.72
2018-09-25T03:08:57.650Z,7.72
2018-09-25T03:11:30.900Z,7.78
2018-09-25T03:14:04.110Z,7.71
2018-09-25T03:16:37.411Z,7.66
2018-09-25T03:19:10.876Z,7.67
2018-09-25T03:21:44.056Z,7.62
2018-09-25T03:24:17.230Z,7.68
2018-09-25T03:26:50.506Z,7.66
2018-09-25T03:29:23.693Z,7.59
2018-09-25T03:31:56.946Z,7.50
2018-09-25T03:34:30.167Z,7.55
2018-09-25T03:37:03.404Z,7.54
2018-09-25T03:39:36.603Z,7.52
2018-09-25T03:42:09.858Z,7.56
2018-09-25T03:44:43.139Z,7.45
2018-09-25T03:47:16.370Z,7.39
2018-09-25T03:49:49.630Z,7.50
2018-09-25T03:52:22.898Z,7.48
2018-09-25T03:54:56.117Z,7.40
2018-09-25T03:57:29.330Z,7.45
2018-09-25T04:00:02.509Z,7.45
2018-09-25T04:02:35.726Z,7.42
2018-09-25T04:05:09.149Z,7.43
2018-09-25T04:07:42.443Z,7.51
2018-09-25T04:10:15.564Z,7.51
2018-09-25T04:12:48.756Z,7.44
2018-09-25T04:15:21.970Z,7.37
2018-09-25T04:17:55.224Z,7.38
2018-09-25T04:20:28.429Z,7.36
2018-09-25T04:23:01.633Z,7.40
2018-09-25T04:25:34.808Z,7.43
2018-09-25T04:28:08.072Z,7.33
2018-09-25T04:30:41.237Z,7.36
2018-09-25T04:33:14.511Z,7.34
2018-09-25T04:35:47.668Z,7.33
2018-09-25T04:38:21.027Z,7.33
2018-09-25T04:40:54.268Z,7.33
2018-09-25T04:43:27.550Z,7.39
2018-09-25T04:46:00.764Z,7.33
2018-09-25T04:48:34.013Z,7.36
2018-09-25T04:51:07.147Z,7.43
2018-09-25T04:53:40.405Z,7.35
2018-09-25T04:56:13.525Z,7.30
2018-09-25T04:58:46.813Z,7.23
2018-09-25T05:01:20.291Z,7.25
2018-09-25T05:03:53.549Z,7.30
2018-09-25T05:06:26.987Z,7.28
2018-09-25T05:09:00.512Z,7.29
2018-09-25T05:11:33.984Z,7.28
2018-09-25T05:14:07.234Z,7.37
2018-09-25T05:16:40.745Z,7.39
2018-09-25T05:19:14.055Z,7.32
2018-09-25T05:21:48.037Z,7.39
2018-09-25T05:24:21.363Z,7.49
2018-09-25T05:26:54.830Z,7.36
2018-09-25T05:29:28.399Z,7.42
2018-09-25T05:32:01.841Z,7.50
2018-09-25T05:34:35.251Z,7.60
2018-09-25T05:37:08.523Z,7.76
2018-09-25T05:39:41.955Z,7.85
2018-09-25T05:42:15.316Z,8.03
2018-09-25T05:44:48.852Z,8.19
2018-09-25T05:47:22.299Z,8.20
2018-09-25T05:49:55.760Z,8.36
2018-09-25T05:52:29.073Z,8.47
2018-09-25T05:55:02.286Z,8.47
2018-09-25T05:57:35.734Z,8.47
2018-09-25T06:00:09.749Z,8.32
2018-09-25T06:02:43.093Z,8.20
2018-09-25T06:05:16.625Z,8.21
2018-09-25T06:07:50.077Z,8.26
2018-09-25T06:10:23.685Z,8.22
2018-09-25T06:12:57.301Z,8.23
2018-09-25T06:15:30.779Z,8.18
2018-09-25T06:18:04.158Z,8.22
2018-09-25T06:20:37.659Z,8.27
2018-09-25T06:23:11.032Z,8.37
2018-09-25T06:25:44.660Z,8.39
2018-09-25T06:28:17.906Z,8.44
2018-09-25T06:30:51.797Z,8.51
2018-09-25T06:33:25.036Z,8.71
2018-09-25T06:35:58.631Z,8.90
2018-09-25T06:38:32.384Z,9.00
2018-09-25T06:41:05.805Z,9.21
2018-09-25T06:43:39.485Z,9.18
2018-09-25T06:46:13.397Z,9.17
2018-09-25T06:48:47.401Z,9.40
2018-09-25T06:51:20.788Z,9.64
2018-09-25T06:53:54.614Z,9.89
2018-09-25T06:56:27.892Z,9.56
2018-09-25T06:59:01.353Z,9.32
2018-09-25T07:01:34.880Z,9.46
2018-09-25T07:04:08.192Z,9.73
2018-09-25T07:06:41.551Z,9.82
2018-09-25T07:09:15.161Z,10.08
2018-09-25T07:11:48.705Z,10.60
2018-09-25T07:14:22.146Z,10.26
2018-09-25T07:16:55.586Z,10.55
2018-09-25T07:19:29.150Z,11.10
2018-09-25T07:22:02.665Z,11.26
2018-09-25T07:24:36.200Z,11.47
2018-09-25T07:27:09.485Z,11.30
2018-09-25T07:29:42.785Z,11.92
2018-09-25T07:32:16.272Z,12.31
2018-09-25T07:34:49.566Z,12.85
2018-09-25T07:37:22.789Z,13.65
2018-09-25T07:39:56.282Z,13.58
2018-09-25T07:42:30.065Z,14.29
2018-09-25T07:45:03.590Z,14.37
2018-09-25T07:47:37.150Z,13.70
2018-09-25T07:50:10.982Z,13.64
2018-09-25T07:52:44.534Z,13.79
2018-09-25T07:55:18.104Z,13.80
2018-09-25T07:57:51.400Z,13.61
2018-09-25T08:00:24.908Z,12.79
2018-09-25T08:02:58.256Z,14.37
2018-09-25T08:05:31.477Z,13.86
2018-09-25T08:08:04.803Z,14.81
2018-09-25T08:10:38.106Z,15.23
2018-09-25T08:13:11.619Z,16.47
2018-09-25T08:15:45.161Z,17.64
2018-09-25T08:18:18.513Z,17.58
2018-09-25T08:20:52.136Z,18.26
2018-09-25T08:23:25.828Z,17.62
2018-09-25T08:25:59.077Z,18.98
2018-09-25T08:28:32.325Z,18.53
2018-09-25T08:31:05.715Z,18.18
2018-09-25T08:33:38.985Z,18.06
2018-09-25T08:36:12.426Z,16.74
2018-09-25T08:38:45.988Z,17.00
2018-09-25T08:41:19.414Z,16.21
2018-09-25T08:43:52.717Z,15.27
2018-09-25T08:46:25.866Z,14.58
2018-09-25T08:48:59.133Z,15.01
2018-09-25T08:51:32.824Z,14.37
2018-09-25T08:54:06.328Z,14.74
2018-09-25T08:56:39.492Z,17.22
2018-09-25T08:59:12.816Z,17.34
2018-09-25T09:01:46.177Z,16.06
2018-09-25T09:04:19.756Z,15.29
2018-09-25T09:06:53.438Z,14.89
2018-09-25T09:09:27.062Z,14.46
2018-09-25T09:12:00.618Z,15.68
2018-09-25T09:14:33.801Z,15.75
2018-09-25T09:17:07.256Z,14.94
2018-09-25T09:19:40.766Z,15.20
2018-09-25T09:22:14.268Z,17.19
2018-09-25T09:24:47.940Z,16.41
2018-09-25T09:27:21.574Z,15.47
2018-09-25T09:29:55.193Z,14.69
2018-09-25T09:32:28.639Z,14.33
2018-09-25T09:35:02.197Z,15.84
2018-09-25T09:37:35.481Z,18.00
2018-09-25T09:40:08.825Z,19.22
2018-09-25T09:42:42.237Z,19.34
2018-09-25T09:45:15.861Z,18.84
2018-09-25T09:47:49.367Z,19.15
2018-09-25T09:50:23.089Z,19.63
2018-09-25T09:52:56.737Z,18.60
2018-09-25T09:55:30.041Z,16.88
2018-09-25T09:58:03.649Z,15.70
2018-09-25T10:00:36.836Z,15.14
2018-09-25T10:03:10.473Z,15.49
2018-09-25T10:05:43.832Z,16.73
2018-09-25T10:08:17.303Z,17.87
2018-09-25T10:10:50.801Z,18.61
2018-09-25T10:13:24.313Z,17.17
2018-09-25T10:15:57.658Z,16.23
2018-09-25T10:18:31.273Z,17.06
2018-09-25T10:21:04.709Z,18.06
2018-09-25T10:23:38.191Z,19.36
2018-09-25T10:26:11.765Z,19.98
2018-09-25T10:28:45.207Z,20.00
2018-09-25T10:31:18.820Z,18.65
2018-09-25T10:33:52.163Z,18.94
2018-09-25T10:36:25.442Z,19.78
2018-09-25T10:38:58.738Z,20.21
2018-09-25T10:41:32.268Z,19.60
2018-09-25T10:44:05.654Z,18.52
2018-09-25T10:46:38.850Z,19.29
2018-09-25T10:49:12.316Z,20.23
2018-09-25T10:51:45.828Z,21.18
2018-09-25T10:54:19.300Z,19.94
2018-09-25T10:56:52.980Z,18.21
2018-09-25T10:59:26.734Z,17.31
2018-09-25T11:02:00.243Z,17.99
2018-09-25T11:04:34.204Z,19.74
2018-09-25T11:07:07.461Z,21.38
2018-09-25T11:09:41.089Z,23.25
2018-09-25T11:12:14.503Z,23.57
2018-09-25T11:14:47.968Z,22.58
2018-09-25T11:17:21.311Z,22.93
2018-09-25T11:19:54.798Z,23.53
2018-09-25T11:22:28.209Z,24.59
2018-09-25T11:25:01.750Z,26.04
2018-09-25T11:27:35.168Z,27.08
2018-09-25T11:30:08.655Z,27.72
2018-09-25T11:32:41.995Z,28.19
2018-09-25T11:35:15.644Z,28.44
2018-09-25T11:37:49.010Z,28.50
2018-09-25T11:40:23.056Z,28.68
2018-09-25T11:42:56.441Z,29.08
2018-09-25T11:45:30.213Z,29.88
2018-09-25T11:48:03.843Z,30.65
2018-09-25T11:50:37.214Z,30.63
2018-09-25T11:53:10.627Z,30.47
2018-09-25T11:55:44.124Z,30.59
2018-09-25T11:58:17.821Z,31.08
2018-09-25T12:00:51.377Z,29.78
2018-09-25T12:03:24.914Z,28.52
2018-09-25T12:05:58.386Z,27.16
2018-09-25T12:08:31.912Z,25.12
2018-09-25T12:11:05.344Z,23.62
2018-09-25T12:13:38.729Z,22.30
2018-09-25T12:16:11.896Z,20.74
2018-09-25T12:18:45.362Z,19.76
2018-09-25T12:21:18.716Z,19.15
2018-09-25T12:23:52.179Z,18.86
2018-09-25T12:26:25.769Z,18.53
2018-09-25T12:28:59.268Z,18.13
2018-09-25T12:31:32.730Z,17.86
2018-09-25T12:34:06.222Z,17.59
2018-09-25T12:36:39.475Z,17.56
2018-09-25T12:39:13.265Z,17.50
2018-09-25T12:41:46.815Z,21.19
2018-09-25T12:44:20.125Z,21.58
2018-09-25T12:46:53.478Z,20.68
2018-09-25T12:49:26.609Z,23.44
2018-09-25T12:51:59.951Z,23.86
2018-09-25T12:54:33.703Z,25.57
2018-09-25T12:57:07.144Z,27.30
2018-09-25T12:59:40.811Z,28.80
2018-09-25T13:02:14.065Z,29.67
2018-09-25T13:04:47.621Z,29.60
2018-09-25T13:07:20.892Z,30.05
2018-09-25T13:09:54.234Z,30.59
2018-09-25T13:12:27.421Z,30.16
2018-09-25T13:15:00.834Z,29.72
2018-09-25T13:17:34.353Z,30.07
2018-09-25T13:20:08.222Z,27.84
2018-09-25T13:22:41.733Z,28.36
2018-09-25T13:25:15.261Z,27.53
2018-09-25T13:27:48.530Z,27.81
2018-09-25T13:30:21.717Z,29.09
2018-09-25T13:32:55.208Z,29.60
2018-09-25T13:35:28.728Z,30.00
2018-09-25T13:38:02.179Z,29.85
2018-09-25T13:40:35.463Z,29.44
2018-09-25T13:43:08.842Z,29.25
2018-09-25T13:45:42.417Z,29.84
2018-09-25T13:48:15.672Z,30.29
2018-09-25T13:50:49.230Z,29.83
2018-09-25T13:53:22.482Z,30.63
2018-09-25T13:55:55.992Z,31.06
2018-09-25T13:58:29.506Z,31.44
2018-09-25T14:01:02.808Z,30.93
2018-09-25T14:03:36.088Z,30.97
2018-09-25T14:06:09.384Z,31.47
2018-09-25T14:08:42.646Z,30.08
2018-09-25T14:11:16.194Z,29.47
2018-09-25T14:13:49.453Z,30.28
2018-09-25T14:16:22.715Z,30.70
2018-09-25T14:18:56.187Z,30.37
2018-09-25T14:21:29.697Z,30.17
2018-09-25T14:24:03.409Z,29.19
2018-09-25T14:26:36.550Z,29.33
2018-09-25T14:29:09.904Z,28.95
2018-09-25T14:31:43.410Z,28.73
2018-09-25T14:34:16.610Z,29.15
2018-09-25T14:36:49.990Z,28.98
2018-09-25T14:39:23.134Z,28.42
2018-09-25T14:41:56.480Z,29.10
2018-09-25T14:44:29.749Z,29.52
2018-09-25T14:47:03.453Z,29.38
2018-09-25T14:49:36.952Z,29.21
2018-09-25T14:52:10.440Z,28.71
2018-09-25T14:54:43.725Z,28.52
2018-09-25T14:57:17.019Z,27.79
2018-09-25T14:59:50.447Z,27.80
2018-09-25T15:02:23.773Z,27.64
2018-09-25T15:04:57.322Z,27.27
2018-09-25T15:07:30.974Z,27.35
2018-09-25T15:10:04.446Z,27.45
2018-09-25T15:12:37.985Z,27.69
2018-09-25T15:15:11.828Z,27.83
2018-09-25T15:17:45.517Z,27.69
2018-09-25T15:20:19.069Z,27.66
2018-09-25T15:22:52.729Z,27.37
2018-09-25T15:25:26.338Z,27.41
2018-09-25T15:27:59.601Z,26.96
2018-09-25T15:30:32.957Z,26.58
2018-09-25T15:33:06.122Z,26.27
2018-09-25T15:35:39.400Z,25.69
2018-09-25T15:38:12.525Z,25.93
2018-09-25T15:40:45.933Z,25.52
2018-09-25T15:43:19.211Z,25.32
2018-09-25T15:45:52.746Z,24.57
2018-09-25T15:48:25.927Z,23.89
2018-09-25T15:50:59.110Z,22.56
2018-09-25T15:53:32.324Z,21.16
2018-09-25T15:56:05.511Z,20.01
2018-09-25T15:58:38.732Z,18.83
2018-09-25T16:01:11.940Z,18.11
2018-09-25T16:03:45.143Z,17.57
2018-09-25T16:06:18.368Z,16.82
2018-09-25T16:08:51.558Z,16.20
2018-09-25T16:11:25.059Z,16.22
2018-09-25T16:13:58.525Z,16.00
2018-09-25T16:16:31.776Z,15.68
2018-09-25T16:19:04.973Z,15.35
2018-09-25T16:21:38.315Z,15.13
2018-09-25T16:24:11.434Z,14.87
2018-09-25T16:26:44.749Z,14.75
2018-09-25T16:29:18.201Z,14.77
2018-09-25T16:31:51.635Z,14.72
2018-09-25T16:34:24.862Z,14.68
2018-09-25T16:36:58.040Z,14.62
2018-09-25T16:39:31.222Z,14.60
2018-09-25T16:42:04.532Z,14.46
2018-09-25T16:44:37.877Z,14.38
2018-09-25T16:47:11.070Z,14.33
2018-09-25T16:49:44.241Z,14.26
2018-09-25T16:52:17.536Z,14.19
2018-09-25T16:54:50.750Z,14.07
2018-09-25T16:57:24.086Z,13.96
2018-09-25T16:59:57.313Z,13.91
2018-09-25T17:02:30.541Z,13.80
2018-09-25T17:05:03.781Z,13.68
2018-09-25T17:07:37.048Z,13.60
2018-09-25T17:10:10.489Z,13.48
2018-09-25T17:12:43.958Z,13.37
2018-09-25T17:15:17.226Z,13.26
2018-09-25T17:17:50.408Z,13.11
2018-09-25T17:20:23.605Z,12.97
2018-09-25T17:22:56.800Z,12.84
2018-09-25T17:25:30.208Z,12.76
2018-09-25T17:28:03.547Z,12.64
2018-09-25T17:30:36.817Z,12.52
2018-09-25T17:33:10.107Z,12.43
2018-09-25T17:35:43.313Z,12.34
2018-09-25T17:38:16.480Z,12.26
2018-09-25T17:40:49.750Z,12.18
2018-09-25T17:43:22.930Z,12.11
2018-09-25T17:45:56.131Z,12.02
2018-09-25T17:48:29.417Z,11.87
2018-09-25T17:51:03.108Z,11.81
2018-09-25T17:53:36.756Z,11.72
2018-09-25T17:56:10.451Z,11.64
2018-09-25T17:58:43.732Z,11.58
2018-09-25T18:01:17.229Z,11.52
2018-09-25T18:03:50.500Z,11.46
2018-09-25T18:06:23.746Z,11.42
2018-09-25T18:08:56.926Z,11.34
2018-09-25T18:11:30.086Z,11.31
2018-09-25T18:14:03.399Z,11.25
2018-09-25T18:16:36.645Z,11.19
2018-09-25T18:19:09.927Z,11.15
2018-09-25T18:21:43.319Z,11.07
2018-09-25T18:24:16.853Z,10.97
2018-09-25T18:26:54.604Z,10.81
2018-09-25T18:29:27.895Z,10.72
2018-09-25T18:32:01.134Z,10.68
2018-09-25T18:34:34.647Z,10.66
2018-09-25T18:37:07.849Z,10.59
2018-09-25T18:39:41.152Z,10.55
2018-09-25T18:42:14.554Z,10.51
2018-09-25T18:44:47.845Z,10.47
2018-09-25T18:47:21.097Z,10.44
2018-09-25T18:49:54.288Z,10.40
2018-09-25T18:52:27.580Z,10.37
2018-09-25T18:55:00.804Z,10.37
2018-09-25T18:57:34.014Z,10.29
2018-09-25T19:00:07.096Z,10.23
2018-09-25T19:02:40.348Z,10.20
2018-09-25T19:05:13.760Z,10.18
2018-09-25T19:07:47.137Z,10.15
2018-09-25T19:10:20.449Z,10.14
2018-09-25T19:12:53.668Z,10.11
2018-09-25T19:15:26.924Z,10.07
2018-09-25T19:18:00.134Z,10.05
2018-09-25T19:20:33.420Z,10.00
2018-09-25T19:23:06.654Z,9.96
2018-09-25T19:25:39.829Z,9.92
2018-09-25T19:28:13.147Z,9.91
2018-09-25T19:30:46.266Z,9.88
2018-09-25T19:33:19.686Z,9.82
2018-09-25T19:35:52.981Z,9.77
2018-09-25T19:38:33.561Z,9.74
2018-09-25T19:41:06.893Z,9.72
2018-09-25T19:43:40.232Z,9.70
2018-09-25T19:46:13.418Z,9.65
2018-09-25T19:48:46.564Z,9.59
2018-09-25T19:51:19.729Z,9.57
2018-09-25T19:53:53.019Z,9.52
2018-09-25T19:56:26.137Z,9.49
2018-09-25T19:58:59.442Z,9.47
2018-09-25T20:01:32.811Z,9.47
2018-09-25T20:04:06.092Z,9.45
2018-09-25T20:06:39.326Z,9.46
2018-09-25T20:09:13.866Z,9.49
2018-09-25T20:11:47.566Z,9.48
2018-09-25T20:14:20.849Z,9.45
2018-09-25T20:16:54.025Z,9.45
2018-09-25T20:19:27.384Z,9.41
2018-09-25T20:22:00.716Z,9.39
2018-09-25T20:24:34.016Z,9.37
2018-09-25T20:27:07.282Z,9.35
2018-09-25T20:29:40.561Z,9.33
2018-09-25T20:32:13.766Z,9.32
2018-09-25T20:34:47.033Z,9.28
2018-09-25T20:37:20.355Z,9.28
2018-09-25T20:39:53.917Z,9.27
2018-09-25T20:42:27.557Z,9.27
2018-09-25T20:45:01.242Z,9.21
2018-09-25T20:47:34.564Z,9.14
2018-09-25T20:50:08.060Z,9.10
2018-09-25T20:52:41.278Z,9.04
2018-09-25T20:55:15.012Z,9.00
2018-09-25T20:57:48.315Z,9.00
2018-09-25T21:00:21.654Z,8.98
2018-09-25T21:02:54.929Z,9.01
2018-09-25T21:05:28.482Z,9.02
2018-09-25T21:08:01.642Z,9.04
2018-09-25T21:10:34.864Z,9.04
2018-09-25T21:13:08.064Z,9.07
2018-09-25T21:15:41.845Z,8.75
2018-09-25T21:18:14.921Z,8.80
2018-09-25T21:20:48.091Z,8.84
2018-09-25T21:23:21.242Z,8.85
2018-09-25T21:25:54.449Z,8.84
2018-09-25T21:28:27.780Z,8.78
2018-09-25T21:31:01.034Z,8.78
2018-09-25T21:33:34.237Z,8.76
2018-09-25T21:36:07.577Z,8.75
2018-09-25T21:38:40.734Z,8.72
2018-09-25T21:41:14.020Z,8.68
2018-09-25T21:43:47.273Z,8.62
2018-09-25T21:46:20.525Z,8.56
2018-09-25T21:48:53.858Z,8.49
2018-09-25T21:51:27.318Z,8.46
2018-09-25T21:54:00.350Z,8.45
2018-09-25T21:56:33.593Z,8.45
2018-09-25T21:59:06.676Z,8.42
2018-09-25T22:01:39.925Z,8.43
2018-09-25T22:04:13.181Z,8.45
2018-09-25T22:06:46.494Z,8.49
2018-09-25T22:09:19.728Z,8.46
2018-09-25T22:11:52.945Z,8.44
2018-09-25T22:14:26.086Z,8.34
2018-09-25T22:16:59.424Z,8.32
2018-09-25T22:19:32.616Z,8.33
2018-09-25T22:22:05.806Z,8.28
2018-09-25T22:24:39.102Z,8.25
2018-09-25T22:27:12.375Z,8.20
2018-09-25T22:29:45.841Z,8.22
2018-09-25T22:39:28.144Z,8.10
2018-09-25T22:42:01.619Z,8.15
2018-09-25T22:44:34.944Z,8.12
2018-09-25T22:47:08.108Z,8.04
2018-09-25T22:49:41.351Z,8.00
2018-09-25T22:52:14.564Z,7.95
2018-09-25T22:54:47.796Z,7.93
2018-09-25T22:57:21.141Z,7.92
2018-09-25T22:59:54.341Z,7.93
2018-09-25T23:02:27.694Z,7.90
2018-09-25T23:05:01.008Z,7.83
2018-09-25T23:07:34.521Z,7.78
2018-09-25T23:10:07.776Z,7.78
2018-09-25T23:12:41.049Z,7.76
2018-09-25T23:15:14.284Z,7.72
2018-09-25T23:17:47.573Z,7.68
2018-09-25T23:20:20.869Z,7.64
2018-09-25T23:22:54.124Z,7.68
2018-09-25T23:25:27.448Z,7.72
2018-09-25T23:28:00.659Z,7.76
2018-09-25T23:30:33.982Z,7.69
2018-09-25T23:33:07.181Z,7.63
2018-09-25T23:35:40.467Z,7.60
2018-09-25T23:38:13.735Z,7.57
2018-09-25T23:42:51.877Z,7.52
2018-09-25T23:45:25.041Z,7.45
2018-09-25T23:50:01.340Z,7.44
2018-09-25T23:52:42.763Z,7.40
2018-09-25T23:55:14.003Z,7.34
2018-09-25T23:57:59.423Z,7.31
